Time;durP1;ratioP1;P1;durP2;ratioP2;P2;SDS_P1;SDS_P2;PMS_P1;PMS_P2;Temp;Humidity;BMP_temperature;BMP_pressure;BME280_temperature;BME280_humidity;BME280_pressure;Samples;Min_cycle;Max_cycle;Signal;HPM_P1;HPM_P2
2023/03/09 00:01:18;;;;;;;44.22;37.28;;;;;;;0.02;100.00;98992.56;5069629;28;20075;-77
2023/03/09 00:03:43;;;;;;;44.22;37.50;;;;;;;0.04;100.00;98980.38;5067039;28;20021;-77
2023/03/09 00:06:09;;;;;;;41.13;36.25;;;;;;;0.03;100.00;98976.13;5049270;28;20036;-77
2023/03/09 00:08:34;;;;;;;43.38;36.35;;;;;;;0.05;100.00;98963.09;5060621;28;20384;-77
2023/03/09 00:11:00;;;;;;;43.10;36.83;;;;;;;0.02;100.00;98971.03;5069087;28;20027;-77
2023/03/09 00:13:25;;;;;;;42.10;35.72;;;;;;;0.02;100.00;98976.22;5069302;28;20496;-78
2023/03/09 00:15:50;;;;;;;44.63;37.38;;;;;;;0.01;100.00;98964.22;5069240;28;20020;-77
2023/03/09 00:18:24;;;;;;;43.08;36.42;;;;;;;0.02;100.00;98927.09;5067167;28;20685;-78
2023/03/09 00:20:49;;;;;;;43.08;36.55;;;;;;;0.01;100.00;98964.22;5060199;28;20036;-78
2023/03/09 00:23:18;;;;;;;42.67;35.90;;;;;;;0.02;100.00;98992.56;5052061;28;20551;-78
2023/03/09 00:25:43;;;;;;;45.40;37.45;;;;;;;0.02;100.00;98994.31;5050504;28;20029;-77
2023/03/09 00:28:09;;;;;;;45.90;36.67;;;;;;;0.04;100.00;99007.97;5049381;28;20065;-78
2023/03/09 00:30:35;;;;;;;46.10;37.60;;;;;;;0.05;100.00;99012.22;5034005;28;20107;-79
2023/03/09 00:33:00;;;;;;;44.97;37.92;;;;;;;0.02;100.00;99020.16;5069738;28;20013;-76
2023/03/09 00:35:58;;;;;;;46.50;37.45;;;;;;;0.05;100.00;99032.91;5050668;28;20032;-76
2023/03/09 00:38:23;;;;;;;46.60;38.10;;;;;;;0.06;100.00;99034.56;5050029;28;20106;-76
2023/03/09 00:40:49;;;;;;;47.58;38.97;;;;;;;0.05;100.00;99030.31;5064645;28;20021;-76
2023/03/09 00:43:15;;;;;;;49.20;39.65;;;;;;;0.05;100.00;99033.72;5067600;28;20043;-76
2023/03/09 00:45:40;;;;;;;48.13;40.30;;;;;;;0.04;100.00;99029.47;5070349;28;20361;-77
2023/03/09 00:48:05;;;;;;;47.05;38.00;;;;;;;0.05;100.00;99035.50;5052569;28;20039;-79
2023/03/09 00:50:31;;;;;;;47.55;40.08;;;;;;;0.06;100.00;99037.16;5050332;28;20029;-77
2023/03/09 00:52:56;;;;;;;47.80;38.75;;;;;;;0.06;100.00;99039.72;5068984;28;20112;-77
2023/03/09 00:55:22;;;;;;;46.45;39.15;;;;;;;0.08;100.00;99040.47;5069147;28;20027;-76
2023/03/09 00:57:48;;;;;;;48.13;38.83;;;;;;;0.07;100.00;99049.16;5061162;28;20035;-77
2023/03/09 01:00:13;;;;;;;48.35;39.50;;;;;;;0.08;100.00;99071.50;5068785;28;20052;-77
2023/03/09 01:02:38;;;;;;;46.03;37.88;;;;;;;0.07;100.00;99065.50;5051290;28;20138;-76
2023/03/09 01:05:04;;;;;;;45.33;37.60;;;;;;;0.07;100.00;99064.66;5050645;28;20055;-76
2023/03/09 01:07:31;;;;;;;43.80;37.30;;;;;;;0.06;100.00;99079.34;5051138;28;20111;-76
2023/03/09 01:09:57;;;;;;;43.40;36.70;;;;;;;0.09;100.00;99096.44;5068345;28;20086;-79
2023/03/09 01:12:29;;;;;;;45.17;37.20;;;;;;;0.13;100.00;99126.34;5048718;28;20479;-76
2023/03/09 01:14:55;;;;;;;;;;;;;;;0.18;100.00;99129.50;5055609;28;20456;-76
2023/03/09 01:17:24;;;;;;;42.80;36.28;;;;;;;0.12;100.00;99117.75;5067763;28;19987;-79
2023/03/09 01:19:49;;;;;;;44.42;37.08;;;;;;;0.12;100.00;99109.16;5068964;28;20098;-77
2023/03/09 01:22:15;;;;;;;47.50;37.63;;;;;;;0.13;100.00;99121.19;5065919;28;20485;-76
2023/03/09 01:24:40;;;;;;;46.15;36.85;;;;;;;0.12;100.00;99115.16;5068667;28;20059;-76
2023/03/09 01:27:07;;;;;;;42.50;35.53;;;;;;;0.13;100.00;99110.84;5050970;28;20028;-76
2023/03/09 01:29:33;;;;;;;44.85;36.83;;;;;;;0.13;100.00;99124.59;5062039;28;20588;-77
2023/03/09 01:31:58;;;;;;;45.72;37.63;;;;;;;0.15;100.00;99137.44;5048216;28;20059;-77
2023/03/09 01:34:23;;;;;;;46.45;36.80;;;;;;;0.14;100.00;99149.53;5067338;28;20036;-77
2023/03/09 01:36:49;;;;;;;44.00;36.17;;;;;;;0.17;100.00;99141.59;5069323;28;20028;-76
2023/03/09 01:39:14;;;;;;;44.53;36.05;;;;;;;0.17;100.00;99133.00;5049636;28;20409;-77
2023/03/09 01:41:40;;;;;;;42.65;35.60;;;;;;;0.18;100.00;99147.59;5068983;28;20024;-77
2023/03/09 01:44:05;;;;;;;45.10;36.60;;;;;;;0.22;100.00;99143.91;5067146;28;20028;-77
2023/03/09 01:47:14;;;;;;;46.50;37.40;;;;;;;0.19;100.00;99138.91;5049710;28;20032;-77
2023/03/09 01:49:46;;;;;;;43.75;36.17;;;;;;;0.17;100.00;99144.19;5018713;28;20036;-77
2023/03/09 01:52:24;;;;;;;45.03;37.25;;;;;;;0.23;100.00;99150.72;5068529;28;20268;-80
2023/03/09 01:55:03;;;;;;;45.40;37.10;;;;;;;0.24;100.00;99160.16;5070029;28;20112;-80
2023/03/09 01:57:36;;;;;;;46.95;37.75;;;;;;;0.19;100.00;99162.19;5069318;28;20016;-80
2023/03/09 02:00:07;;;;;;;;;;;;;;;0.34;100.00;99160.44;5068569;28;20082;-81
2023/03/09 02:02:37;;;;;;;45.13;36.83;;;;;;;0.22;100.00;99172.34;5064579;28;19923;-77
2023/03/09 02:05:05;;;;;;;46.17;37.47;;;;;;;0.25;100.00;99178.16;5067002;28;20029;-77
2023/03/09 02:07:34;;;;;;;47.38;38.03;;;;;;;0.26;100.00;99181.59;5066920;28;20059;-77
2023/03/09 02:10:10;;;;;;;48.25;38.83;;;;;;;0.27;100.00;99185.84;5068972;28;20025;-77
2023/03/09 02:12:36;;;;;;;49.47;39.25;;;;;;;0.31;100.00;99187.31;5068148;28;20033;-77
2023/03/09 02:15:03;;;;;;;51.83;40.78;;;;;;;0.27;100.00;99168.56;5064747;28;20135;-77
2023/03/09 02:17:29;;;;;;;50.38;39.85;;;;;;;0.27;100.00;99171.16;5066611;28;20389;-77
2023/03/09 02:20:00;;;;;;;49.70;40.85;;;;;;;0.27;100.00;99165.16;5046201;28;20663;-80
2023/03/09 02:22:26;;;;;;;50.38;39.50;;;;;;;0.26;100.00;99166.06;5066277;28;20033;-77
2023/03/09 02:25:26;;;;;;;51.58;41.03;;;;;;;0.27;100.00;99176.31;5068462;28;20046;-77
2023/03/09 02:27:55;;;;;;;54.22;41.33;;;;;;;0.29;100.00;99168.47;5050068;28;20032;-77
2023/03/09 02:30:24;;;;;;;53.40;41.20;;;;;;;0.27;100.00;99171.16;5073035;28;20475;-77
2023/03/09 02:32:49;;;;;;;53.17;39.88;;;;;;;0.27;100.00;99168.56;5072715;28;20101;-77
2023/03/09 02:35:15;;;;;;;55.35;41.63;;;;;;;0.26;100.00;99192.75;5062330;28;20496;-78
2023/03/09 02:37:43;;;;;;;54.10;40.47;;;;;;;0.28;100.00;99197.84;5059878;28;20501;-78
2023/03/09 02:40:13;;;;;;;54.13;40.70;;;;;;;0.28;100.00;99205.59;5033284;28;20032;-78
2023/03/09 02:42:39;;;;;;;56.30;41.90;;;;;;;0.29;100.00;99204.69;5050073;28;20033;-78
2023/03/09 02:45:14;;;;;;;56.35;40.65;;;;;;;0.29;100.00;99199.50;5034943;28;20079;-78
2023/03/09 02:47:40;;;;;;;53.70;40.58;;;;;;;0.28;100.00;99197.84;5052648;28;20037;-78
2023/03/09 02:50:09;;;;;;;55.03;40.83;;;;;;;0.26;100.00;99204.88;5032937;28;20031;-79
2023/03/09 02:52:36;;;;;;;57.53;41.72;;;;;;;0.27;100.00;99207.34;5025473;28;20044;-77
2023/03/09 02:55:02;;;;;;;59.42;40.88;;;;;;;0.26;100.00;99208.28;5053150;28;20060;-77
2023/03/09 02:57:28;;;;;;;52.75;40.28;;;;;;;0.32;100.00;99209.69;5034199;28;20032;-81
2023/03/09 02:59:54;;;;;;;53.90;41.20;;;;;;;0.31;100.00;99195.06;5052352;28;20024;-78
2023/03/09 03:02:20;;;;;;;55.22;41.00;;;;;;;0.26;100.00;99189.34;5052193;28;20036;-77
2023/03/09 03:04:46;;;;;;;55.40;40.83;;;;;;;0.27;100.00;99196.19;5033547;28;20103;-77
2023/03/09 03:07:11;;;;;;;59.25;41.00;;;;;;;0.24;100.00;99206.72;5050924;28;20094;-78
2023/03/09 03:09:37;;;;;;;53.20;40.42;;;;;;;0.25;100.00;99206.63;5042095;28;20067;-78
2023/03/09 03:12:23;;;;;;;57.47;41.13;;;;;;;0.26;100.00;99205.69;5051854;28;20028;-78
2023/03/09 03:14:48;;;;;;;54.70;41.15;;;;;;;0.25;100.00;99204.03;5051707;28;20031;-78
2023/03/09 03:17:14;;;;;;;54.22;41.50;;;;;;;0.26;100.00;99205.69;5049337;28;20100;-78
2023/03/09 03:19:39;;;;;;;57.35;42.50;;;;;;;0.27;100.00;99212.53;5051399;28;20397;-78
2023/03/09 03:22:05;;;;;;;58.15;42.65;;;;;;;0.25;100.00;99209.19;5049776;28;20029;-78
2023/03/09 03:24:38;;;;;;;58.05;42.42;;;;;;;0.25;100.00;99208.38;5025661;28;20017;-78
2023/03/09 03:27:06;;;;;;;57.00;42.47;;;;;;;0.25;100.00;99218.72;5026939;28;20028;-78
2023/03/09 03:29:32;;;;;;;59.83;43.45;;;;;;;0.23;100.00;99230.91;5050556;28;20112;-78
2023/03/09 03:31:57;;;;;;;58.92;43.28;;;;;;;0.24;100.00;99228.22;5049257;28;20100;-78
2023/03/09 03:34:23;;;;;;;61.08;44.65;;;;;;;0.21;100.00;99246.50;5050228;28;20032;-80
2023/03/09 03:36:58;;;;;;;58.85;44.25;;;;;;;0.23;100.00;99267.09;5033291;28;20031;-79
2023/03/09 03:39:24;;;;;;;61.00;43.97;;;;;;;0.23;100.00;99277.44;5064393;28;20067;-78
2023/03/09 03:41:49;;;;;;;64.13;45.80;;;;;;;0.18;100.00;99269.13;5060463;28;20016;-79
2023/03/09 03:44:23;;;;;;;61.75;45.40;;;;;;;0.24;100.00;99279.13;5069685;28;20074;-77
2023/03/09 03:46:49;;;;;;;63.40;45.42;;;;;;;0.23;100.00;99272.28;5054204;28;20025;-77
2023/03/09 03:49:14;;;;;;;65.25;46.65;;;;;;;0.25;100.00;99279.03;5069584;28;20115;-77
2023/03/09 03:51:40;;;;;;;69.40;46.83;;;;;;;0.24;100.00;99279.94;5070547;28;20069;-77
2023/03/09 03:54:06;;;;;;;68.50;48.15;;;;;;;0.24;100.00;99271.38;5069853;28;20028;-77
2023/03/09 03:56:32;;;;;;;67.43;47.47;;;;;;;0.27;100.00;99273.78;5050745;28;20161;-77
2023/03/09 03:58:58;;;;;;;68.95;48.08;;;;;;;0.25;100.00;99276.44;5051876;28;20072;-77
2023/03/09 04:01:51;;;;;;;69.63;48.35;;;;;;;0.28;100.00;99275.44;5049716;28;20054;-76
2023/03/09 04:04:17;;;;;;;70.57;49.95;;;;;;;0.26;100.00;99282.44;5066009;28;20020;-76
2023/03/09 04:06:43;;;;;;;69.90;48.63;;;;;;;0.27;100.00;99278.94;5068902;28;20074;-77
2023/03/09 04:09:08;;;;;;;74.40;50.92;;;;;;;0.23;100.00;99277.44;5070779;28;20039;-77
2023/03/09 04:11:34;;;;;;;75.13;51.38;;;;;;;0.25;100.00;99279.03;5071852;28;20032;-77
2023/03/09 04:14:02;;;;;;;74.57;50.45;;;;;;;0.26;100.00;99295.38;5057547;28;20504;-77
2023/03/09 04:16:27;;;;;;;79.10;52.28;;;;;;;0.26;100.00;99288.47;5069538;28;20118;-77
2023/03/09 04:18:53;;;;;;;73.22;50.72;;;;;;;0.30;100.00;99299.47;5069086;28;20060;-79
2023/03/09 04:21:18;;;;;;;77.32;52.40;;;;;;;0.28;100.00;99303.88;5070736;28;20020;-76
2023/03/09 04:23:50;;;;;;;79.93;52.75;;;;;;;0.25;100.00;99309.22;5051655;28;20029;-76
2023/03/09 04:26:15;;;;;;;80.15;54.28;;;;;;;0.24;100.00;99308.41;5069526;28;20103;-80
2023/03/09 04:28:41;;;;;;;81.32;54.08;;;;;;;0.23;100.00;99308.50;5069667;28;20418;-77
2023/03/09 04:31:06;;;;;;;78.90;52.88;;;;;;;0.26;100.00;99308.31;5051276;28;20110;-77
2023/03/09 04:33:31;;;;;;;82.25;55.05;;;;;;;0.26;100.00;99319.50;5060092;28;20172;-77
2023/03/09 04:35:57;;;;;;;87.05;55.42;;;;;;;0.22;100.00;99323.16;5068183;28;20032;-77
2023/03/09 04:38:22;;;;;;;77.03;53.67;;;;;;;0.28;100.00;99316.81;5069752;28;20075;-77
2023/03/09 04:40:48;;;;;;;81.22;54.67;;;;;;;0.25;100.00;99317.81;5052380;28;20109;-77
2023/03/09 04:43:13;;;;;;;84.07;54.70;;;;;;;0.23;100.00;99330.00;5068673;28;20107;-76
2023/03/09 04:45:38;;;;;;;83.57;55.35;;;;;;;0.27;100.00;99341.00;5070376;28;20103;-77
2023/03/09 04:48:04;;;;;;;85.43;55.65;;;;;;;0.24;100.00;99342.03;5062351;28;20056;-77
2023/03/09 04:50:30;;;;;;;84.45;54.80;;;;;;;0.27;100.00;99341.84;5066096;28;20024;-77
2023/03/09 04:52:57;;;;;;;83.80;54.88;;;;;;;0.28;100.00;99338.34;5068986;28;20035;-77
2023/03/09 04:55:22;;;;;;;87.53;56.47;;;;;;;0.24;100.00;99341.19;5067934;28;20108;-77
2023/03/09 04:57:48;;;;;;;90.97;56.97;;;;;;;0.26;100.00;99349.69;5070047;28;20115;-77
2023/03/09 05:00:14;;;;;;;89.25;56.95;;;;;;;0.25;100.00;99348.03;5069396;28;20028;-76
2023/03/09 05:02:40;;;;;;;87.50;57.70;;;;;;;0.24;100.00;99352.38;5050887;28;20028;-77
2023/03/09 05:05:06;;;;;;;90.53;57.38;;;;;;;0.26;100.00;99360.88;5061647;28;20507;-77
2023/03/09 05:07:32;;;;;;;90.95;58.28;;;;;;;0.28;100.00;99360.78;5069329;28;20024;-75
2023/03/09 05:09:57;;;;;;;95.72;59.55;;;;;;;0.24;100.00;99362.72;5069509;28;20035;-76
2023/03/09 05:12:23;;;;;;;94.40;59.58;;;;;;;0.24;100.00;99367.06;5069104;28;20476;-76
2023/03/09 05:14:48;;;;;;;96.68;60.80;;;;;;;0.24;100.00;99382.56;5070299;28;20447;-77
2023/03/09 05:17:13;;;;;;;96.65;60.17;;;;;;;0.22;100.00;99390.41;5067469;28;20060;-77
2023/03/09 05:19:40;;;;;;;100.60;60.63;;;;;;;0.22;100.00;99402.50;5069658;28;20028;-76
2023/03/09 05:22:05;;;;;;;103.53;64.13;;;;;;;0.20;100.00;99404.34;5055906;28;20366;-77
2023/03/09 05:24:31;;;;;;;98.90;63.70;;;;;;;0.22;100.00;99399.94;5049171;28;20024;-80
2023/03/09 05:26:57;;;;;;;99.50;63.35;;;;;;;0.23;100.00;99393.84;5049961;28;20052;-77
2023/03/09 05:29:22;;;;;;;102.35;64.18;;;;;;;0.26;100.00;99393.66;5053583;28;20400;-77
2023/03/09 05:31:48;;;;;;;104.18;63.38;;;;;;;0.24;100.00;99398.09;5068915;28;20034;-77
2023/03/09 05:34:14;;;;;;;101.68;65.38;;;;;;;0.22;100.00;99395.59;5068551;28;20020;-76
2023/03/09 05:36:39;;;;;;;103.68;66.72;;;;;;;0.24;100.00;99403.25;5052455;28;20393;-77
2023/03/09 05:39:06;;;;;;;105.78;66.88;;;;;;;0.25;100.00;99410.09;5065340;28;20052;-76
2023/03/09 05:41:31;;;;;;;105.80;66.53;;;;;;;0.26;100.00;99404.00;5066535;28;20028;-76
2023/03/09 05:44:00;;;;;;;105.57;67.25;;;;;;;0.26;100.00;99391.06;5068580;28;20024;-76
2023/03/09 05:46:26;;;;;;;107.80;67.53;;;;;;;0.27;100.00;99397.91;5066893;28;20077;-77
2023/03/09 05:48:52;;;;;;;105.95;67.72;;;;;;;0.25;100.00;99397.16;5068862;28;20096;-76
2023/03/09 05:51:17;;;;;;;108.95;67.32;;;;;;;0.24;100.00;99388.56;5051082;28;20388;-76
2023/03/09 05:53:43;;;;;;;109.00;67.53;;;;;;;0.27;100.00;99387.56;5068374;28;20032;-77
2023/03/09 05:56:09;;;;;;;107.38;65.97;;;;;;;0.22;100.00;99405.94;5060277;28;20025;-77
2023/03/09 05:58:35;;;;;;;105.45;67.05;;;;;;;0.30;100.00;99413.25;5047891;28;20036;-76
2023/03/09 06:01:01;;;;;;;107.97;67.18;;;;;;;0.29;100.00;99422.78;5055733;28;20085;-76
2023/03/09 06:03:27;;;;;;;109.35;67.80;;;;;;;0.29;100.00;99427.94;5068691;28;20027;-76
2023/03/09 06:06:00;;;;;;;103.57;66.75;;;;;;;0.30;100.00;99423.59;5066854;28;20024;-76
2023/03/09 06:08:26;;;;;;;99.85;65.10;;;;;;;0.30;100.00;99424.44;5068440;28;20027;-77
2023/03/09 06:10:52;;;;;;;106.75;66.88;;;;;;;0.32;100.00;99425.19;5068059;28;20024;-76
2023/03/09 06:13:17;;;;;;;103.15;66.35;;;;;;;0.32;100.00;99429.53;5047709;28;20044;-76
2023/03/09 06:15:43;;;;;;;105.75;67.80;;;;;;;0.29;100.00;99419.34;5050445;28;20029;-77
2023/03/09 06:18:08;;;;;;;106.18;66.60;;;;;;;0.35;100.00;99437.13;5050598;28;20021;-76
2023/03/09 06:20:34;;;;;;;101.40;66.22;;;;;;;0.36;100.00;99443.13;5048893;28;20035;-79
2023/03/09 06:23:00;;;;;;;105.88;66.10;;;;;;;0.39;100.00;99442.97;5049845;28;20124;-76
2023/03/09 06:25:25;;;;;;;103.82;66.65;;;;;;;0.36;100.00;99449.13;5050247;28;20029;-76
2023/03/09 06:27:50;;;;;;;110.07;67.03;;;;;;;0.39;100.00;99459.31;5069015;28;20086;-77
2023/03/09 06:30:16;;;;;;;105.10;66.85;;;;;;;0.44;100.00;99454.75;5038276;28;20037;-76
2023/03/09 06:32:42;;;;;;;106.10;66.55;;;;;;;0.42;100.00;99461.75;5052220;28;20095;-77
2023/03/09 06:35:08;;;;;;;101.72;66.22;;;;;;;0.46;100.00;99465.00;5068280;28;20107;-80
2023/03/09 06:37:34;;;;;;;104.95;66.60;;;;;;;0.44;100.00;99456.50;5066937;28;20036;-80
2023/03/09 06:39:59;;;;;;;106.47;66.57;;;;;;;0.48;100.00;99468.34;5067683;28;20094;-80
2023/03/09 06:42:25;;;;;;;103.47;65.78;;;;;;;0.51;100.00;99481.97;5067665;28;20031;-77
2023/03/09 06:44:50;;;;;;;103.40;65.38;;;;;;;0.50;100.00;99477.69;5068011;28;20411;-76
2023/03/09 06:47:16;;;;;;;101.53;65.45;;;;;;;0.49;100.00;99488.97;5053244;28;20104;-76
2023/03/09 06:49:43;;;;;;;96.25;63.67;;;;;;;0.49;100.00;99486.38;5048596;28;20094;-76
2023/03/09 06:52:09;;;;;;;93.85;63.38;;;;;;;0.52;100.00;99495.72;5047824;28;20089;-77
2023/03/09 06:54:34;;;;;;;94.88;63.85;;;;;;;0.53;100.00;99498.22;5048099;28;20024;-76
2023/03/09 06:57:02;;;;;;;93.45;62.45;;;;;;;0.53;100.00;99500.81;5046964;28;20087;-76
2023/03/09 06:59:30;;;;;;;96.10;63.25;;;;;;;0.54;100.00;99510.25;5047693;28;20448;-76
2023/03/09 07:01:59;;;;;;;95.40;63.75;;;;;;;0.55;100.00;99508.50;5060403;28;20155;-76
2023/03/09 07:04:24;;;;;;;93.10;62.10;;;;;;;0.55;100.00;99517.09;5049231;28;20477;-76
2023/03/09 07:06:49;;;;;;;92.97;61.70;;;;;;;0.58;100.00;99527.28;5068296;28;20043;-76
2023/03/09 07:09:15;;;;;;;94.25;61.40;;;;;;;0.59;100.00;99534.13;5066966;28;20020;-77
2023/03/09 07:11:40;;;;;;;93.38;61.20;;;;;;;0.58;100.00;99537.63;5068324;28;20020;-76
2023/03/09 07:14:05;;;;;;;99.20;64.43;;;;;;;0.61;100.00;99555.56;5069384;28;20028;-77
2023/03/09 07:16:34;;;;;;;97.90;62.53;;;;;;;0.59;100.00;99564.34;5068578;28;20134;-77
2023/03/09 07:19:02;;;;;;;95.32;62.10;;;;;;;0.65;100.00;99573.53;5063276;28;20025;-77
2023/03/09 07:21:29;;;;;;;95.93;62.97;;;;;;;0.67;100.00;99571.69;5070857;28;20028;-76
2023/03/09 07:23:55;;;;;;;99.70;64.95;;;;;;;0.59;100.00;99564.34;5046180;28;20123;-76
2023/03/09 07:26:20;;;;;;;94.22;62.13;;;;;;;0.68;100.00;99571.59;5056804;28;20100;-75
2023/03/09 07:28:46;;;;;;;98.40;63.20;;;;;;;0.65;100.00;99573.53;5052171;28;20036;-80
2023/03/09 07:31:12;;;;;;;92.43;62.15;;;;;;;0.67;100.00;99580.28;5069358;28;20389;-80
2023/03/09 07:33:38;;;;;;;97.72;62.53;;;;;;;0.70;100.00;99571.50;5067407;28;20044;-80
2023/03/09 07:36:05;;;;;;;90.50;61.92;;;;;;;0.63;100.00;99583.97;5067576;28;20029;-81
2023/03/09 07:38:31;;;;;;;93.22;61.80;;;;;;;0.68;100.00;99591.47;5056156;28;20588;-81
2023/03/09 07:40:58;;;;;;;93.60;60.83;;;;;;;0.69;100.00;99598.31;5053730;28;20032;-81
2023/03/09 07:43:23;;;;;;;91.75;60.28;;;;;;;0.71;100.00;99599.06;5071383;28;20397;-81
2023/03/09 07:45:49;;;;;;;94.03;62.03;;;;;;;0.71;100.00;99604.25;5071617;28;20024;-81
2023/03/09 07:48:15;;;;;;;90.20;58.90;;;;;;;0.70;100.00;99607.75;5071484;28;20017;-78
2023/03/09 07:50:41;;;;;;;88.25;58.72;;;;;;;0.72;100.00;99606.75;5072287;28;20021;-81
2023/03/09 07:53:07;;;;;;;85.25;57.95;;;;;;;0.76;100.00;99612.59;5070927;28;20103;-81
2023/03/09 07:55:34;;;;;;;88.95;58.63;;;;;;;0.70;100.00;99610.34;5070479;28;20104;-77
2023/03/09 07:58:03;;;;;;;89.47;59.70;;;;;;;0.74;100.00;99609.25;5071552;28;20020;-77
2023/03/09 08:00:30;;;;;;;91.88;58.47;;;;;;;0.75;100.00;99610.94;5070468;28;20036;-76
2023/03/09 08:02:56;;;;;;;89.20;57.78;;;;;;;0.76;100.00;99615.19;5053215;28;20025;-75
2023/03/09 08:05:22;;;;;;;87.43;58.30;;;;;;;0.81;100.00;99623.56;5068510;28;20029;-73
2023/03/09 08:07:49;;;;;;;84.63;56.80;;;;;;;0.88;100.00;99625.75;5071354;28;20082;-75
2023/03/09 08:10:16;;;;;;;89.82;59.17;;;;;;;0.89;100.00;99629.16;5052390;28;20039;-76
2023/03/09 08:12:43;;;;;;;85.25;56.78;;;;;;;0.91;100.00;99628.16;5052503;28;20536;-75
2023/03/09 08:15:09;;;;;;;89.18;57.38;;;;;;;0.93;100.00;99636.69;5070279;28;20028;-75
2023/03/09 08:17:35;;;;;;;92.95;57.63;;;;;;;0.98;100.00;99644.19;5068394;28;20029;-75
2023/03/09 08:20:01;;;;;;;89.03;57.92;;;;;;;1.00;100.00;99652.72;5030978;28;20021;-73
2023/03/09 08:22:27;;;;;;;86.03;56.72;;;;;;;1.04;100.00;99649.03;5050454;28;20010;-74
2023/03/09 08:24:52;;;;;;;85.35;56.60;;;;;;;1.06;100.00;99654.97;5049367;28;20036;-75
2023/03/09 08:27:18;;;;;;;83.45;56.25;;;;;;;1.10;100.00;99642.69;5050096;28;20079;-76
2023/03/09 08:29:43;;;;;;;91.45;57.03;;;;;;;1.12;100.00;99644.28;5051043;28;20031;-76
2023/03/09 08:32:09;;;;;;;85.90;56.35;;;;;;;1.13;100.00;99651.13;5051259;28;20171;-76
2023/03/09 08:34:35;;;;;;;86.68;56.90;;;;;;;1.22;100.00;99666.19;5064037;28;20456;-76
2023/03/09 08:37:01;;;;;;;86.03;56.25;;;;;;;1.22;100.00;99661.03;5058693;28;20115;-76
2023/03/09 08:39:26;;;;;;;84.03;56.65;;;;;;;1.22;100.00;99665.38;5065918;28;20496;-76
2023/03/09 08:41:55;;;;;;;79.53;53.55;;;;;;;1.21;100.00;99671.47;5051738;28;20116;-77
2023/03/09 08:44:20;;;;;;;79.05;53.35;;;;;;;1.25;100.00;99673.81;5070006;28;20036;-76
2023/03/09 08:46:45;;;;;;;78.60;54.63;;;;;;;1.33;100.00;99675.13;5071149;28;20480;-76
2023/03/09 08:49:11;;;;;;;91.53;55.40;;;;;;;1.27;100.00;99670.28;5069830;28;20028;-76
2023/03/09 08:51:36;;;;;;;79.38;53.35;;;;;;;1.35;100.00;99683.66;5069256;28;20031;-76
2023/03/09 08:54:02;;;;;;;79.72;53.40;;;;;;;1.43;100.00;99702.19;5052356;28;20020;-76
2023/03/09 08:56:28;;;;;;;80.97;55.17;;;;;;;1.42;100.00;99710.91;5059488;28;20073;-77
2023/03/09 08:58:53;;;;;;;81.97;54.80;;;;;;;1.37;100.00;99707.72;5070385;28;20171;-77
2023/03/09 09:01:19;;;;;;;78.13;52.72;;;;;;;1.37;100.00;99707.72;5069873;28;20028;-76
2023/03/09 09:03:44;;;;;;;76.57;52.80;;;;;;;1.34;100.00;99702.72;5066699;28;20031;-77
2023/03/09 09:06:18;;;;;;;76.78;52.47;;;;;;;1.37;100.00;99718.09;5069955;28;20020;-76
2023/03/09 09:08:44;;;;;;;78.03;52.42;;;;;;;1.42;100.00;99718.66;5059982;28;20115;-76
2023/03/09 09:11:12;;;;;;;79.43;52.33;;;;;;;1.44;100.00;99716.84;5059862;28;20146;-76
2023/03/09 09:13:38;;;;;;;74.35;53.00;;;;;;;1.42;100.00;99726.44;5057966;28;20024;-76
2023/03/09 09:16:05;;;;;;;75.82;51.75;;;;;;;1.47;100.00;99733.06;5068009;28;20036;-76
2023/03/09 09:18:32;;;;;;;74.97;51.28;;;;;;;1.54;100.00;99731.78;5069106;28;20016;-76
2023/03/09 09:20:59;;;;;;;73.43;52.35;;;;;;;1.56;100.00;99724.75;5066593;28;20158;-77
2023/03/09 09:23:24;;;;;;;79.82;53.78;;;;;;;1.55;100.00;99702.34;5063907;28;20024;-77
2023/03/09 09:25:56;;;;;;;75.65;51.35;;;;;;;1.65;100.00;99717.44;5088580;28;20015;-77
2023/03/09 09:28:24;;;;;;;79.05;52.70;;;;;;;1.69;100.00;99727.53;5079613;28;20017;-76
2023/03/09 09:30:54;;;;;;;79.45;53.15;;;;;;;1.72;100.00;99729.13;5089256;28;20179;-77
2023/03/09 09:33:21;;;;;;;76.50;53.03;;;;;;;1.72;100.00;99727.38;5079356;28;20051;-77
2023/03/09 09:35:55;;;;;;;78.85;53.63;;;;;;;1.86;100.00;99737.78;5070148;28;20028;-77
2023/03/09 09:38:25;;;;;;;73.03;51.10;;;;;;;1.85;100.00;99745.66;5070925;28;20400;-77
2023/03/09 09:40:55;;;;;;;73.63;52.08;;;;;;;1.91;100.00;99745.31;5077703;28;20380;-80
2023/03/09 09:43:22;;;;;;;72.18;51.10;;;;;;;1.90;100.00;99743.63;5084310;28;20437;-80
2023/03/09 09:45:49;;;;;;;71.55;50.38;;;;;;;1.98;100.00;99733.66;5089617;28;20380;-77
2023/03/09 09:48:17;;;;;;;71.07;49.17;;;;;;;1.98;100.00;99743.22;5082205;28;20476;-77
2023/03/09 09:50:58;;;;;;;71.65;51.00;;;;;;;2.04;100.00;99745.47;5070776;28;20119;-77
2023/03/09 09:53:54;;;;;;;70.05;50.55;;;;;;;2.16;100.00;99749.97;5079632;28;20055;-77
2023/03/09 09:56:25;;;;;;;73.68;51.90;;;;;;;2.20;100.00;99754.06;5064293;28;20040;-76
2023/03/09 09:58:57;;;;;;;70.50;50.42;;;;;;;2.25;100.00;99748.59;5089042;28;20024;-76
2023/03/09 10:01:52;;;;;;;70.65;51.17;;;;;;;2.26;100.00;99747.66;5071546;28;20392;-76
2023/03/09 10:04:27;;;;;;;73.28;51.30;;;;;;;2.28;100.00;99740.63;5070762;28;20036;-77
2023/03/09 10:06:56;;;;;;;72.68;52.85;;;;;;;2.33;100.00;99742.03;5071713;28;20406;-76
2023/03/09 10:09:26;;;;;;;68.03;49.60;;;;;;;2.39;100.00;99740.84;5071298;28;20399;-77
2023/03/09 10:11:58;;;;;;;68.50;48.30;;;;;;;2.36;100.00;99751.41;5063651;28;20716;-77
2023/03/09 10:14:27;;;;;;;66.57;48.25;;;;;;;2.38;100.00;99752.97;5089281;28;20039;-77
2023/03/09 10:17:31;;;;;;;70.32;50.72;;;;;;;2.49;100.00;99752.38;5071323;28;20032;-77
2023/03/09 10:20:23;;;;;;;64.97;48.35;;;;;;;2.53;100.00;99753.88;5043883;28;20036;-76
2023/03/09 10:23:19;;;;;;;74.50;49.65;;;;;;;2.61;100.00;99756.84;5071019;28;20027;-77
2023/03/09 10:25:47;;;;;;;71.82;50.30;;;;;;;2.71;100.00;99747.59;5088652;28;20126;-80
2023/03/09 10:28:19;;;;;;;65.90;47.10;;;;;;;2.76;100.00;99744.72;5071222;28;20029;-80
2023/03/09 10:31:08;;;;;;;65.93;48.80;;;;;;;2.93;100.00;99747.16;5089122;28;20217;-78
2023/03/09 10:34:19;;;;;;;70.97;48.85;;;;;;;2.99;100.00;99733.78;5082185;28;20032;-77
2023/03/09 10:37:20;;;;;;;63.95;47.88;;;;;;;3.09;100.00;99741.84;5059344;28;20067;-77
2023/03/09 10:39:46;;;;;;;61.67;47.10;;;;;;;3.09;100.00;99737.50;5083712;28;20051;-78
2023/03/09 10:42:19;;;;;;;64.00;47.30;;;;;;;3.05;100.00;99745.56;5079562;28;20033;-78
2023/03/09 10:44:56;;;;;;;62.45;46.15;;;;;;;2.99;100.00;99751.97;5066036;28;20145;-76
2023/03/09 10:47:22;;;;;;;62.08;45.45;;;;;;;2.98;100.00;99739.91;5086133;28;20043;-76
2023/03/09 10:50:09;;;;;;;64.07;47.28;;;;;;;3.03;100.00;99748.25;5073727;28;20012;-76
2023/03/09 10:52:34;;;;;;;57.78;43.15;;;;;;;2.97;100.00;99759.03;5078120;28;20120;-77
2023/03/09 10:55:00;;;;;;;58.17;44.05;;;;;;;2.92;100.00;99745.50;5084802;28;20452;-76
2023/03/09 10:57:33;;;;;;;57.15;43.50;;;;;;;2.96;100.00;99741.78;5092491;28;20054;-77
2023/03/09 11:00:19;;;;;;;58.33;43.10;;;;;;;3.11;100.00;99743.44;5092535;28;20024;-76
2023/03/09 11:02:59;;;;;;;57.25;42.10;;;;;;;3.22;100.00;99741.97;5077937;28;20044;-77
2023/03/09 11:05:31;;;;;;;57.10;42.22;;;;;;;3.38;100.00;99747.88;5078583;28;20025;-76
2023/03/09 11:08:02;;;;;;;57.38;43.13;;;;;;;3.50;100.00;99757.50;5093089;28;20027;-76
2023/03/09 11:10:29;;;;;;;55.13;41.10;;;;;;;3.44;100.00;99757.88;5085265;28;20016;-78
2023/03/09 11:12:56;;;;;;;55.95;42.95;;;;;;;3.43;100.00;99753.63;5092598;28;20372;-78
2023/03/09 11:15:28;;;;;;;57.25;42.65;;;;;;;3.31;100.00;99757.00;5091001;28;20024;-77
2023/03/09 11:17:55;;;;;;;;;;;;;;;3.56;100.00;99754.53;5077440;28;20070;-77
2023/03/09 11:20:25;;;;;;;58.75;42.40;;;;;;;3.42;100.00;99750.19;5079083;28;20427;-77
2023/03/09 11:23:11;;;;;;;58.40;43.50;;;;;;;3.40;100.00;99749.44;5080999;28;20028;-77